Time;durP1;ratioP1;P1;durP2;ratioP2;P2;SDS_P1;SDS_P2;PMS_P1;PMS_P2;Temp;Humidity;BMP_temperature;BMP_pressure;BME280_temperature;BME280_humidity;BME280_pressure;Samples;Min_cycle;Max_cycle;Signal;HPM_P1;HPM_P2
2021/08/03 00:01:39;;;;;;;;;9.33;9.33;;;;;;;;5121236;27;45248;-76
2021/08/03 00:04:14;;;;;;;;;10.00;8.00;;;;;;;;5121398;27;45219;-77
2021/08/03 00:06:43;;;;;;;;;10.00;10.00;;;;;;;;5119482;27;48125;-77
2021/08/03 00:09:08;;;;;;;;;8.00;8.00;;;;;;;;5111839;27;45318;-77
2021/08/03 00:11:34;;;;;;;;;8.33;8.33;;;;;;;;5100622;27;45309;-77
2021/08/03 00:14:02;;;;;;;;;8.67;8.67;;;;;;;;5100532;27;45317;-77
2021/08/03 00:16:33;;;;;;;;;9.33;9.33;;;;;;;;5100293;27;45358;-77
2021/08/03 00:18:59;;;;;;;;;10.33;10.00;;;;;;;;5100172;27;45322;-77
2021/08/03 00:21:25;;;;;;;;;9.33;9.33;;;;;;;;5100211;27;45418;-77
2021/08/03 00:23:51;;;;;;;;;9.67;8.00;;;;;;;;5100379;27;45496;-76
2021/08/03 00:26:16;;;;;;;;;9.00;9.00;;;;;;;;5100226;27;45278;-76
2021/08/03 00:28:46;;;;;;;;;7.67;7.00;;;;;;;;5100385;27;45251;-76
2021/08/03 00:31:13;;;;;;;;;9.00;8.33;;;;;;;;5132687;27;45396;-77
2021/08/03 00:33:38;;;;;;;;;10.33;10.00;;;;;;;;5141526;27;45420;-77
2021/08/03 00:36:04;;;;;;;;;10.00;8.00;;;;;;;;5141409;27;45358;-77
2021/08/03 00:38:31;;;;;;;;;9.33;9.33;;;;;;;;5140903;27;45355;-77
2021/08/03 00:41:01;;;;;;;;;9.00;9.00;;;;;;;;5141788;27;45222;-76
2021/08/03 00:43:26;;;;;;;;;8.00;7.00;;;;;;;;5134283;27;45477;-77
2021/08/03 00:45:52;;;;;;;;;11.33;10.67;;;;;;;;5120623;27;46694;-76
2021/08/03 00:48:17;;;;;;;;;12.00;10.33;;;;;;;;5120624;27;45313;-77
2021/08/03 00:50:43;;;;;;;;;10.00;10.00;;;;;;;;5120921;27;45360;-77
2021/08/03 00:53:08;;;;;;;;;10.67;10.00;;;;;;;;5116527;27;45734;-76
2021/08/03 00:55:34;;;;;;;;;10.67;9.67;;;;;;;;5099816;27;45921;-77
2021/08/03 00:58:00;;;;;;;;;11.33;9.33;;;;;;;;5099843;27;45384;-76
2021/08/03 01:00:25;;;;;;;;;9.67;9.67;;;;;;;;5099806;27;45222;-76
2021/08/03 01:02:50;;;;;;;;;11.33;9.33;;;;;;;;5099832;27;45216;-76
2021/08/03 01:05:16;;;;;;;;;8.00;8.00;;;;;;;;5099829;27;45193;-76
2021/08/03 01:08:06;;;;;;;;;7.67;7.67;;;;;;;;5099538;27;45303;-76
2021/08/03 01:10:53;;;;;;;;;10.00;10.00;;;;;;;;5119162;27;45358;-77
2021/08/03 01:13:26;;;;;;;;;11.33;9.00;;;;;;;;5120266;27;45317;-76
2021/08/03 01:15:54;;;;;;;;;10.00;8.33;;;;;;;;5118718;27;47519;-76
2021/08/03 01:18:22;;;;;;;;;11.33;11.33;;;;;;;;5120111;27;45312;-77
2021/08/03 01:20:48;;;;;;;;;8.00;8.00;;;;;;;;5122890;27;45168;-76
2021/08/03 01:23:25;;;;;;;;;11.67;10.33;;;;;;;;5122078;27;46036;-76
2021/08/03 01:26:04;;;;;;;;;9.33;9.33;;;;;;;;5123699;27;46775;-76
2021/08/03 01:28:38;;;;;;;;;11.67;11.67;;;;;;;;5123709;27;45303;-76
2021/08/03 01:31:10;;;;;;;;;10.00;10.00;;;;;;;;5138948;27;45359;-76
2021/08/03 01:33:40;;;;;;;;;9.00;9.00;;;;;;;;5144255;27;45414;-76
2021/08/03 01:36:06;;;;;;;;;9.33;9.33;;;;;;;;5142894;27;48375;-76
2021/08/03 01:38:34;;;;;;;;;8.67;8.33;;;;;;;;5143757;27;45306;-76
2021/08/03 01:41:01;;;;;;;;;11.00;10.33;;;;;;;;5144511;27;45318;-76
2021/08/03 01:43:27;;;;;;;;;9.67;9.67;;;;;;;;5144086;27;45442;-76
2021/08/03 01:45:54;;;;;;;;;12.67;12.00;;;;;;;;5144046;27;45566;-76
2021/08/03 01:48:21;;;;;;;;;11.67;10.00;;;;;;;;5144165;27;45395;-76
2021/08/03 01:50:49;;;;;;;;;10.00;10.00;;;;;;;;5144286;27;45196;-76
2021/08/03 01:53:14;;;;;;;;;9.00;9.00;;;;;;;;5143769;27;45396;-76
2021/08/03 01:55:39;;;;;;;;;9.00;9.00;;;;;;;;5143932;27;45184;-76
2021/08/03 01:58:05;;;;;;;;;10.33;10.00;;;;;;;;5142633;27;45191;-76
2021/08/03 02:00:30;;;;;;;;;10.67;9.67;;;;;;;;5144166;27;45200;-76
2021/08/03 02:02:56;;;;;;;;;11.67;11.67;;;;;;;;5143824;27;45298;-76
2021/08/03 02:05:22;;;;;;;;;10.67;9.00;;;;;;;;5143930;27;45372;-76
2021/08/03 02:07:48;;;;;;;;;11.00;10.00;;;;;;;;5143533;27;45256;-76
2021/08/03 02:10:13;;;;;;;;;14.33;12.00;;;;;;;;5143917;27;45344;-76
2021/08/03 02:12:39;;;;;;;;;11.00;9.67;;;;;;;;5143827;27;45537;-77
2021/08/03 02:15:05;;;;;;;;;9.33;9.33;;;;;;;;5143615;27;45381;-76
2021/08/03 02:17:31;;;;;;;;;17.00;13.67;;;;;;;;5143297;27;45367;-76
2021/08/03 02:19:56;;;;;;;;;12.67;11.00;;;;;;;;5143788;27;45159;-76
2021/08/03 02:22:21;;;;;;;;;8.67;8.67;;;;;;;;5143209;27;45209;-77
2021/08/03 02:24:46;;;;;;;;;14.67;10.67;;;;;;;;5136462;27;45297;-77
2021/08/03 02:27:12;;;;;;;;;11.33;10.00;;;;;;;;5122785;27;45270;-77
2021/08/03 02:29:38;;;;;;;;;11.00;11.00;;;;;;;;5125883;27;45195;-76
2021/08/03 02:32:09;;;;;;;;;13.33;11.33;;;;;;;;5143243;27;45566;-76
2021/08/03 02:34:41;;;;;;;;;14.00;14.00;;;;;;;;5143356;27;45337;-76
2021/08/03 02:37:11;;;;;;;;;11.33;9.67;;;;;;;;5142871;27;45325;-76
2021/08/03 02:39:37;;;;;;;;;13.67;13.33;;;;;;;;5141967;27;45474;-76
2021/08/03 02:42:03;;;;;;;;;11.00;11.00;;;;;;;;5143244;27;45228;-76
2021/08/03 02:44:28;;;;;;;;;11.00;11.00;;;;;;;;5143161;27;46419;-77
2021/08/03 02:46:55;;;;;;;;;11.00;11.00;;;;;;;;5143247;27;45311;-76
2021/08/03 02:49:34;;;;;;;;;12.33;11.67;;;;;;;;5141862;27;45387;-76
2021/08/03 02:52:01;;;;;;;;;12.00;12.00;;;;;;;;5142858;27;45296;-76
2021/08/03 02:54:33;;;;;;;;;9.00;9.00;;;;;;;;5141526;27;48449;-76
2021/08/03 02:57:00;;;;;;;;;11.00;11.00;;;;;;;;5142948;27;45395;-76
2021/08/03 02:59:28;;;;;;;;;13.00;13.00;;;;;;;;5138452;27;45290;-77
2021/08/03 03:01:55;;;;;;;;;13.00;13.00;;;;;;;;5121912;27;45530;-76
2021/08/03 03:04:29;;;;;;;;;12.00;10.00;;;;;;;;5122077;27;45297;-76
2021/08/03 03:06:56;;;;;;;;;12.33;12.33;;;;;;;;5121726;27;45277;-76
2021/08/03 03:09:24;;;;;;;;;12.00;11.33;;;;;;;;5122243;27;45370;-76
2021/08/03 03:11:53;;;;;;;;;16.00;13.00;;;;;;;;5121820;27;45359;-76
2021/08/03 03:14:20;;;;;;;;;12.00;11.00;;;;;;;;5121911;27;45242;-77
2021/08/03 03:16:47;;;;;;;;;13.00;12.67;;;;;;;;5121555;27;45366;-77
2021/08/03 03:19:17;;;;;;;;;14.00;13.00;;;;;;;;5122045;27;45298;-78
2021/08/03 03:21:43;;;;;;;;;14.67;11.67;;;;;;;;5121500;27;45228;-77
2021/08/03 03:24:08;;;;;;;;;11.67;11.67;;;;;;;;5121699;27;45222;-77
2021/08/03 03:26:34;;;;;;;;;12.33;11.33;;;;;;;;5121874;27;45152;-76
2021/08/03 03:29:00;;;;;;;;;12.67;12.33;;;;;;;;5121951;27;45297;-77
2021/08/03 03:31:28;;;;;;;;;11.33;9.67;;;;;;;;5139955;27;45373;-77
2021/08/03 03:33:55;;;;;;;;;13.33;12.33;;;;;;;;5140942;27;47224;-76
2021/08/03 03:36:23;;;;;;;;;12.33;12.33;;;;;;;;5142067;27;45319;-77
2021/08/03 03:38:49;;;;;;;;;14.67;14.33;;;;;;;;5142543;27;45195;-77
2021/08/03 03:41:15;;;;;;;;;12.33;12.00;;;;;;;;5142308;27;45234;-77
2021/08/03 03:43:40;;;;;;;;;15.00;15.00;;;;;;;;5141537;27;46631;-77
2021/08/03 03:46:07;;;;;;;;;13.67;12.00;;;;;;;;5142333;27;45389;-76
2021/08/03 03:48:33;;;;;;;;;11.00;11.00;;;;;;;;5142477;27;45342;-77
2021/08/03 03:50:59;;;;;;;;;17.00;15.67;;;;;;;;5142139;27;45279;-76
2021/08/03 03:53:26;;;;;;;;;14.00;13.67;;;;;;;;5141730;27;46086;-76
2021/08/03 03:55:53;;;;;;;;;15.67;15.67;;;;;;;;5142143;27;45287;-76
2021/08/03 03:58:19;;;;;;;;;14.33;14.33;;;;;;;;5142051;27;45310;-77
2021/08/03 04:00:45;;;;;;;;;16.67;15.00;;;;;;;;5141889;27;45403;-75
2021/08/03 04:03:11;;;;;;;;;17.00;17.00;;;;;;;;5142549;27;46027;-77
2021/08/03 04:05:39;;;;;;;;;18.00;17.33;;;;;;;;5144265;27;45290;-78
2021/08/03 04:08:08;;;;;;;;;17.67;16.33;;;;;;;;5142963;27;45331;-77
2021/08/03 04:10:34;;;;;;;;;18.33;16.33;;;;;;;;5140550;27;46467;-78
2021/08/03 04:13:00;;;;;;;;;20.00;19.00;;;;;;;;5141887;27;46657;-77
2021/08/03 04:15:25;;;;;;;;;17.33;16.33;;;;;;;;5140233;27;45231;-78
2021/08/03 04:17:50;;;;;;;;;25.33;23.00;;;;;;;;5141959;27;45394;-77
2021/08/03 04:20:15;;;;;;;;;21.00;19.00;;;;;;;;5141742;27;45370;-77
2021/08/03 04:22:41;;;;;;;;;19.33;18.00;;;;;;;;5141541;27;45338;-77
2021/08/03 04:25:06;;;;;;;;;18.00;18.00;;;;;;;;5141782;27;45238;-78
2021/08/03 04:27:32;;;;;;;;;17.67;15.33;;;;;;;;5141755;27;45238;-77
2021/08/03 04:29:57;;;;;;;;;23.00;21.33;;;;;;;;5135901;27;45271;-76
2021/08/03 04:32:22;;;;;;;;;22.67;22.00;;;;;;;;5120805;27;45358;-76
2021/08/03 04:34:47;;;;;;;;;23.67;22.67;;;;;;;;5120883;27;45325;-76
2021/08/03 04:37:12;;;;;;;;;29.33;26.67;;;;;;;;5119071;27;45327;-76
2021/08/03 04:39:38;;;;;;;;;27.67;24.00;;;;;;;;5121230;27;45420;-77
2021/08/03 04:42:03;;;;;;;;;22.33;18.67;;;;;;;;5120833;27;46470;-78
2021/08/03 04:44:28;;;;;;;;;22.67;22.00;;;;;;;;5123035;27;45269;-77
2021/08/03 04:46:53;;;;;;;;;23.33;21.67;;;;;;;;5122970;27;45317;-78
2021/08/03 04:49:19;;;;;;;;;20.33;19.33;;;;;;;;5121119;27;45285;-79
2021/08/03 04:51:44;;;;;;;;;21.00;19.33;;;;;;;;5122831;27;46382;-77
2021/08/03 04:54:09;;;;;;;;;18.67;18.67;;;;;;;;5122250;27;45824;-78
2021/08/03 04:56:34;;;;;;;;;17.00;16.00;;;;;;;;5124467;27;45338;-78
2021/08/03 04:58:59;;;;;;;;;17.67;15.00;;;;;;;;5124086;27;45431;-78
2021/08/03 05:01:25;;;;;;;;;18.00;17.67;;;;;;;;5123959;27;45432;-78
2021/08/03 05:03:50;;;;;;;;;14.67;14.67;;;;;;;;5124097;27;45307;-78
2021/08/03 05:06:15;;;;;;;;;20.00;16.00;;;;;;;;5123849;27;45349;-78
2021/08/03 05:08:40;;;;;;;;;16.00;13.00;;;;;;;;5124075;27;45311;-78
2021/08/03 05:11:05;;;;;;;;;15.00;14.00;;;;;;;;5108031;27;46186;-78
2021/08/03 05:13:31;;;;;;;;;18.33;17.67;;;;;;;;5102002;27;45344;-77
2021/08/03 05:15:56;;;;;;;;;15.33;15.33;;;;;;;;5103294;27;45487;-78
2021/08/03 05:18:21;;;;;;;;;14.00;14.00;;;;;;;;5103101;27;45254;-78
2021/08/03 05:20:47;;;;;;;;;20.00;17.33;;;;;;;;5103249;27;45312;-77
2021/08/03 05:23:12;;;;;;;;;12.00;12.00;;;;;;;;5101550;27;45263;-77
2021/08/03 05:25:37;;;;;;;;;20.33;16.67;;;;;;;;5103180;27;45611;-78
2021/08/03 05:28:03;;;;;;;;;14.00;14.00;;;;;;;;5103161;27;45584;-77
2021/08/03 05:30:28;;;;;;;;;17.00;13.67;;;;;;;;5123029;27;46020;-77
2021/08/03 05:32:53;;;;;;;;;17.00;16.00;;;;;;;;5144477;27;45294;-78
2021/08/03 05:35:18;;;;;;;;;14.67;14.67;;;;;;;;5144597;27;45203;-77
2021/08/03 05:37:44;;;;;;;;;13.33;12.67;;;;;;;;5143692;27;45504;-77
2021/08/03 05:40:09;;;;;;;;;17.67;16.33;;;;;;;;5140910;27;46402;-78
2021/08/03 05:42:35;;;;;;;;;17.00;15.00;;;;;;;;5123606;27;45197;-77
2021/08/03 05:45:00;;;;;;;;;16.00;14.67;;;;;;;;5123790;27;45381;-77
2021/08/03 05:47:26;;;;;;;;;14.33;14.33;;;;;;;;5121949;27;47361;-77
2021/08/03 05:49:51;;;;;;;;;15.67;12.67;;;;;;;;5123498;27;45436;-77
2021/08/03 05:52:18;;;;;;;;;16.00;16.00;;;;;;;;5123054;27;45385;-77
2021/08/03 05:54:43;;;;;;;;;12.00;12.00;;;;;;;;5123426;27;45343;-78
2021/08/03 05:57:08;;;;;;;;;13.00;13.00;;;;;;;;5123128;27;45281;-77
2021/08/03 05:59:33;;;;;;;;;11.67;11.67;;;;;;;;5123259;27;46189;-77
2021/08/03 06:01:58;;;;;;;;;16.33;16.00;;;;;;;;5123105;27;45443;-78
2021/08/03 06:04:24;;;;;;;;;16.33;15.33;;;;;;;;5123237;27;45423;-77
2021/08/03 06:06:49;;;;;;;;;19.33;18.67;;;;;;;;5122280;27;45604;-78
2021/08/03 06:09:15;;;;;;;;;14.33;13.00;;;;;;;;5123144;27;45304;-78
2021/08/03 06:11:45;;;;;;;;;17.33;17.33;;;;;;;;5121736;27;45203;-77
2021/08/03 06:14:10;;;;;;;;;26.00;20.67;;;;;;;;5123185;27;45216;-77
2021/08/03 06:16:36;;;;;;;;;15.33;15.33;;;;;;;;5122583;27;45257;-77
2021/08/03 06:19:02;;;;;;;;;17.67;16.33;;;;;;;;5122869;27;45316;-78
2021/08/03 06:21:28;;;;;;;;;15.33;14.67;;;;;;;;5122632;27;45273;-78
2021/08/03 06:23:54;;;;;;;;;14.33;13.67;;;;;;;;5122966;27;45333;-78
2021/08/03 06:26:20;;;;;;;;;12.67;11.67;;;;;;;;5122739;27;45267;-78
2021/08/03 06:28:47;;;;;;;;;15.33;14.33;;;;;;;;5121137;27;48196;-78
2021/08/03 06:31:13;;;;;;;;;18.33;17.67;;;;;;;;5139124;27;45333;-77
2021/08/03 06:33:38;;;;;;;;;16.33;15.67;;;;;;;;5143637;27;45139;-78
2021/08/03 06:36:04;;;;;;;;;15.33;15.33;;;;;;;;5143317;27;45180;-78
2021/08/03 06:38:29;;;;;;;;;18.33;16.00;;;;;;;;5142876;27;45263;-78
2021/08/03 06:41:03;;;;;;;;;12.33;12.33;;;;;;;;5143191;27;45434;-78
2021/08/03 06:43:29;;;;;;;;;15.33;14.67;;;;;;;;5142212;27;45480;-78
2021/08/03 06:46:03;;;;;;;;;17.33;16.67;;;;;;;;5143153;27;45277;-78
2021/08/03 06:48:30;;;;;;;;;16.67;15.00;;;;;;;;5143045;27;45910;-78
2021/08/03 06:51:01;;;;;;;;;15.00;13.33;;;;;;;;5141730;27;45672;-78
2021/08/03 06:53:28;;;;;;;;;14.00;13.00;;;;;;;;5142829;27;45336;-78
2021/08/03 06:55:55;;;;;;;;;12.67;11.33;;;;;;;;5143099;27;45524;-78
2021/08/03 06:58:30;;;;;;;;;11.67;11.67;;;;;;;;5142814;27;45336;-78
2021/08/03 07:00:57;;;;;;;;;11.00;10.33;;;;;;;;5142727;27;45274;-78
2021/08/03 07:03:23;;;;;;;;;11.00;11.00;;;;;;;;5143187;27;45311;-78
2021/08/03 07:05:53;;;;;;;;;12.00;10.33;;;;;;;;5142879;27;45493;-78
2021/08/03 07:08:18;;;;;;;;;10.00;9.00;;;;;;;;5142406;27;45255;-78
2021/08/03 07:10:44;;;;;;;;;12.33;12.00;;;;;;;;5142911;27;45283;-79
2021/08/03 07:13:11;;;;;;;;;9.33;9.33;;;;;;;;5142981;27;45242;-78
2021/08/03 07:15:37;;;;;;;;;15.67;13.33;;;;;;;;5142693;27;45704;-78
2021/08/03 07:18:02;;;;;;;;;10.67;10.67;;;;;;;;5141417;27;45549;-78
2021/08/03 07:20:29;;;;;;;;;8.00;7.00;;;;;;;;5142840;27;45319;-77
2021/08/03 07:22:55;;;;;;;;;11.00;10.00;;;;;;;;5142521;27;45313;-78
2021/08/03 07:25:21;;;;;;;;;10.00;9.00;;;;;;;;5133993;27;47709;-77
2021/08/03 07:27:46;;;;;;;;;10.33;10.00;;;;;;;;5118493;27;46116;-77
2021/08/03 07:30:11;;;;;;;;;10.67;9.67;;;;;;;;5129484;27;45267;-77
2021/08/03 07:32:37;;;;;;;;;11.67;11.67;;;;;;;;5141280;27;45256;-77
2021/08/03 07:35:04;;;;;;;;;10.67;9.67;;;;;;;;5102134;27;45805;-78
2021/08/03 07:37:30;;;;;;;;;8.67;7.67;;;;;;;;5100410;27;47744;-78
2021/08/03 07:39:56;;;;;;;;;7.33;6.33;;;;;;;;5101111;27;45435;-76
2021/08/03 07:42:21;;;;;;;;;6.33;5.67;;;;;;;;5113787;27;45305;-77
2021/08/03 07:44:46;;;;;;;;;5.33;5.33;;;;;;;;5121009;27;45280;-77
2021/08/03 07:47:12;;;;;;;;;5.00;4.33;;;;;;;;5120124;27;47280;-76
2021/08/03 07:49:37;;;;;;;;;6.33;6.00;;;;;;;;5121570;27;45810;-77
2021/08/03 07:52:03;;;;;;;;;7.00;7.00;;;;;;;;5121390;27;45390;-78
2021/08/03 07:54:28;;;;;;;;;8.33;8.33;;;;;;;;5121477;27;45433;-77
2021/08/03 07:56:53;;;;;;;;;5.33;5.33;;;;;;;;5121446;27;46472;-77
2021/08/03 07:59:19;;;;;;;;;6.00;6.00;;;;;;;;5121420;27;45426;-78
2021/08/03 08:01:44;;;;;;;;;8.00;8.00;;;;;;;;5116821;27;45361;-77
2021/08/03 08:04:09;;;;;;;;;6.00;5.67;;;;;;;;5109170;27;45301;-77
2021/08/03 08:06:34;;;;;;;;;4.00;4.00;;;;;;;;5109225;27;45457;-77
2021/08/03 08:08:59;;;;;;;;;4.00;3.00;;;;;;;;5110259;27;45477;-78
2021/08/03 08:11:25;;;;;;;;;2.67;2.67;;;;;;;;5111277;27;45505;-77
2021/08/03 08:13:50;;;;;;;;;3.33;3.33;;;;;;;;5103344;27;45389;-77
2021/08/03 08:16:15;;;;;;;;;4.33;3.00;;;;;;;;5100215;27;45476;-78
2021/08/03 08:18:40;;;;;;;;;2.33;2.33;;;;;;;;5100141;27;45239;-77
2021/08/03 08:21:06;;;;;;;;;3.67;2.00;;;;;;;;5100369;27;45243;-77
2021/08/03 08:23:31;;;;;;;;;2.00;2.00;;;;;;;;5100541;27;45449;-77
2021/08/03 08:25:58;;;;;;;;;5.67;5.00;;;;;;;;5100348;27;45296;-77
2021/08/03 08:28:23;;;;;;;;;5.67;5.67;;;;;;;;5098204;27;45681;-77
2021/08/03 08:30:50;;;;;;;;;6.00;6.00;;;;;;;;5110200;27;45573;-78
2021/08/03 08:33:15;;;;;;;;;7.00;7.00;;;;;;;;5117532;27;45256;-78
2021/08/03 08:35:40;;;;;;;;;7.67;7.00;;;;;;;;5103620;27;46215;-78
2021/08/03 08:38:05;;;;;;;;;8.67;8.67;;;;;;;;5099609;27;45683;-78
2021/08/03 08:40:31;;;;;;;;;8.67;7.67;;;;;;;;5100466;27;45538;-78
2021/08/03 08:42:57;;;;;;;;;7.00;7.00;;;;;;;;5100374;27;45289;-78
2021/08/03 08:45:22;;;;;;;;;6.00;6.00;;;;;;;;5099653;27;45289;-78
2021/08/03 08:47:48;;;;;;;;;6.00;6.00;;;;;;;;5098767;27;45409;-77
2021/08/03 08:50:14;;;;;;;;;6.00;6.00;;;;;;;;5100163;27;45231;-78
2021/08/03 08:52:40;;;;;;;;;6.33;5.67;;;;;;;;5099442;27;45304;-78
2021/08/03 08:55:06;;;;;;;;;7.00;5.33;;;;;;;;5108718;27;48755;-78
2021/08/03 08:57:32;;;;;;;;;6.00;6.00;;;;;;;;5112631;27;45286;-78
2021/08/03 08:59:57;;;;;;;;;6.00;5.67;;;;;;;;5098905;27;45549;-78
2021/08/03 09:02:38;;;;;;;;;5.00;3.67;;;;;;;;5098254;27;46199;-78
2021/08/03 09:05:04;;;;;;;;;5.67;5.67;;;;;;;;5099945;27;45564;-78
2021/08/03 09:07:30;;;;;;;;;7.33;7.33;;;;;;;;5099595;27;45332;-78
2021/08/03 09:09:55;;;;;;;;;6.33;6.33;;;;;;;;5098730;27;45285;-78
2021/08/03 09:12:31;;;;;;;;;4.67;4.67;;;;;;;;5102270;27;45227;-79
2021/08/03 09:14:56;;;;;;;;;2.33;2.33;;;;;;;;5105003;27;45408;-79
2021/08/03 09:17:25;;;;;;;;;5.33;5.00;;;;;;;;5099360;27;45319;-79
2021/08/03 09:19:50;;;;;;;;;1.67;1.67;;;;;;;;5099969;27;45373;-78
2021/08/03 09:22:21;;;;;;;;;6.00;6.00;;;;;;;;5099167;27;45279;-78
2021/08/03 09:24:48;;;;;;;;;4.33;4.33;;;;;;;;5098275;27;47608;-78
2021/08/03 09:27:29;;;;;;;;;6.00;6.00;;;;;;;;5099611;27;45235;-78
2021/08/03 09:29:55;;;;;;;;;5.00;5.00;;;;;;;;5110223;27;45465;-78
2021/08/03 09:32:27;;;;;;;;;5.67;5.67;;;;;;;;5140968;27;45296;-79
2021/08/03 09:35:05;;;;;;;;;4.67;4.67;;;;;;;;5140927;27;45237;-78
2021/08/03 09:37:34;;;;;;;;;5.00;5.00;;;;;;;;5139051;27;45887;-78
2021/08/03 09:39:59;;;;;;;;;3.67;3.67;;;;;;;;5140954;27;45421;-78
2021/08/03 09:42:27;;;;;;;;;5.33;4.67;;;;;;;;5144139;27;45201;-79
2021/08/03 09:44:56;;;;;;;;;375.20;333.40;;;;;;;;5144142;27;46220;-78
2021/08/03 09:47:23;;;;;;;;;51.75;43.00;;;;;;;;5144269;27;45272;-78
2021/08/03 09:49:50;;;;;;;;;4.33;4.00;;;;;;;;5142949;27;45262;-78
2021/08/03 09:52:16;;;;;;;;;4.00;4.00;;;;;;;;5143895;27;45335;-78
2021/08/03 09:54:42;;;;;;;;;5.00;3.67;;;;;;;;5126038;27;45981;-78
2021/08/03 09:57:24;;;;;;;;;6.67;6.00;;;;;;;;5106494;27;45325;-78
2021/08/03 09:59:50;;;;;;;;;5.33;4.67;;;;;;;;5107590;27;45221;-78
2021/08/03 10:02:17;;;;;;;;;5.00;5.00;;;;;;;;5109110;27;45665;-77
2021/08/03 10:04:43;;;;;;;;;4.67;4.67;;;;;;;;5102547;27;45408;-78
2021/08/03 10:07:08;;;;;;;;;6.00;5.00;;;;;;;;5102276;27;45294;-78
2021/08/03 10:09:35;;;;;;;;;4.00;4.00;;;;;;;;5102758;27;45355;-77
2021/08/03 10:12:00;;;;;;;;;3.33;3.33;;;;;;;;5102576;27;45485;-78
2021/08/03 10:14:25;;;;;;;;;5.00;5.00;;;;;;;;5102375;27;46130;-79
2021/08/03 10:16:51;;;;;;;;;4.00;4.00;;;;;;;;5102323;27;45311;-78
2021/08/03 10:19:20;;;;;;;;;5.00;5.00;;;;;;;;5102442;27;45212;-77
2021/08/03 10:21:47;;;;;;;;;4.33;3.67;;;;;;;;5102059;27;45235;-77
2021/08/03 10:24:14;;;;;;;;;4.00;4.00;;;;;;;;5100955;27;47275;-78
2021/08/03 10:26:40;;;;;;;;;2.00;2.00;;;;;;;;5102295;27;45362;-79
2021/08/03 10:29:21;;;;;;;;;4.67;3.00;;;;;;;;5102446;27;45269;-78
2021/08/03 10:31:46;;;;;;;;;4.00;4.00;;;;;;;;5102099;27;45472;-78
2021/08/03 10:34:32;;;;;;;;;3.00;3.00;;;;;;;;5100704;27;46610;-78
2021/08/03 10:36:57;;;;;;;;;4.33;3.00;;;;;;;;5101823;27;45267;-77
2021/08/03 10:39:22;;;;;;;;;5.00;4.00;;;;;;;;5102001;27;45429;-76
2021/08/03 10:41:56;;;;;;;;;2.00;2.00;;;;;;;;5102104;27;45615;-77
2021/08/03 10:44:40;;;;;;;;;3.50;3.50;;;;;;;;5107552;27;46768;-78
2021/08/03 10:47:26;;;;;;;;;4.00;4.00;;;;;;;;5110611;27;45442;-77
2021/08/03 10:49:55;;;;;;;;;5.00;4.00;;;;;;;;5104481;27;45322;-77
2021/08/03 10:52:39;;;;;;;;;4.67;3.33;;;;;;;;5101172;27;45401;-78
2021/08/03 10:55:04;;;;;;;;;3.67;3.67;;;;;;;;5120308;27;46363;-76
2021/08/03 10:57:29;;;;;;;;;4.00;4.00;;;;;;;;5124079;27;45317;-77
2021/08/03 10:59:58;;;;;;;;;6.33;6.33;;;;;;;;5122775;27;45430;-77
2021/08/03 11:02:23;;;;;;;;;4.00;4.00;;;;;;;;5110072;27;45526;-78
2021/08/03 11:04:51;;;;;;;;;3.00;3.00;;;;;;;;5103370;27;48152;-78
2021/08/03 11:07:30;;;;;;;;;4.67;4.00;;;;;;;;5101412;27;45299;-77
2021/08/03 11:09:56;;;;;;;;;6.00;6.00;;;;;;;;5101647;27;45292;-76
2021/08/03 11:12:37;;;;;;;;;4.00;3.00;;;;;;;;5101406;27;45438;-76
2021/08/03 11:15:21;;;;;;;;;7.00;5.00;;;;;;;;5101258;27;45329;-77
2021/08/03 11:18:07;;;;;;;;;5.67;5.67;;;;;;;;5100966;27;45268;-76
2021/08/03 11:20:34;;;;;;;;;2.67;2.67;;;;;;;;5100854;27;45321;-76
2021/08/03 11:23:00;;;;;;;;;5.67;4.00;;;;;;;;5099286;27;46219;-77
2021/08/03 11:25:26;;;;;;;;;3.33;3.33;;;;;;;;5101265;27;45461;-78
2021/08/03 11:27:52;;;;;;;;;5.00;4.67;;;;;;;;5101325;27;45206;-78
2021/08/03 11:30:18;;;;;;;;;7.00;4.00;;;;;;;;5105439;27;45771;-77
2021/08/03 11:32:46;;;;;;;;;3.00;3.00;;;;;;;;5118975;27;45412;-77
2021/08/03 11:35:12;;;;;;;;;4.67;4.00;;;;;;;;5104060;27;45350;-78
2021/08/03 11:37:40;;;;;;;;;4.00;4.00;;;;;;;;5116620;27;45861;-78
2021/08/03 11:40:06;;;;;;;;;4.00;3.00;;;;;;;;5115917;27;45258;-78
2021/08/03 11:42:33;;;;;;;;;4.00;4.00;;;;;;;;5121009;27;45269;-78
2021/08/03 11:45:06;;;;;;;;;5.33;5.00;;;;;;;;5121668;27;45220;-77
2021/08/03 11:47:39;;;;;;;;;3.67;3.67;;;;;;;;5105051;27;45375;-79
2021/08/03 11:50:04;;;;;;;;;4.00;4.00;;;;;;;;5099731;27;45285;-78
2021/08/03 11:52:31;;;;;;;;;3.00;3.00;;;;;;;;5100470;27;46517;-78
2021/08/03 11:54:56;;;;;;;;;5.67;5.67;;;;;;;;5100817;27;45621;-78
2021/08/03 11:57:25;;;;;;;;;5.33;5.33;;;;;;;;5103612;27;45401;-78
2021/08/03 12:00:00;;;;;;;;;7.00;7.00;;;;;;;;5118242;27;45292;-77
2021/08/03 12:02:25;;;;;;;;;8.33;6.00;;;;;;;;5120750;27;45166;-78
2021/08/03 12:05:09;;;;;;;;;7.67;7.00;;;;;;;;5118998;27;46441;-78
2021/08/03 12:07:36;;;;;;;;;8.33;7.00;;;;;;;;5108901;27;45381;-78
2021/08/03 12:10:02;;;;;;;;;3.33;3.33;;;;;;;;5104839;27;45526;-78
2021/08/03 12:12:27;;;;;;;;;5.00;5.00;;;;;;;;5105374;27;45539;-78
2021/08/03 12:15:22;;;;;;;;;4.00;4.00;;;;;;;;5126812;27;45462;-78
2021/08/03 12:17:47;;;;;;;;;6.00;6.00;;;;;;;;5100688;27;45437;-78
2021/08/03 12:20:23;;;;;;;;;4.67;4.33;;;;;;;;5114471;27;45444;-78
2021/08/03 12:22:48;;;;;;;;;6.67;5.00;;;;;;;;5119454;27;46178;-78
2021/08/03 12:25:13;;;;;;;;;7.67;7.33;;;;;;;;5120859;27;46171;-78
2021/08/03 12:27:40;;;;;;;;;8.00;5.00;;;;;;;;5121057;27;45544;-79
2021/08/03 12:30:06;;;;;;;;;6.00;6.00;;;;;;;;5127850;27;45343;-78
2021/08/03 12:32:35;;;;;;;;;5.00;5.00;;;;;;;;5141557;27;45278;-79
2021/08/03 12:35:10;;;;;;;;;5.33;5.33;;;;;;;;5141564;27;45238;-79
2021/08/03 12:37:35;;;;;;;;;6.67;5.00;;;;;;;;5141247;27;45219;-79
2021/08/03 12:40:00;;;;;;;;;7.00;7.00;;;;;;;;5141791;27;45207;-78
2021/08/03 12:44:54;;;;;;;;;8.00;8.00;;;;;;;;5132128;27;46016;-78
2021/08/03 12:47:21;;;;;;;;;6.00;4.00;;;;;;;;5100172;27;45405;-78
2021/08/03 12:49:48;;;;;;;;;5.00;5.00;;;;;;;;5119089;27;45267;-78
2021/08/03 12:52:13;;;;;;;;;5.33;5.33;;;;;;;;5120369;27;45525;-79
2021/08/03 12:54:39;;;;;;;;;31.00;29.67;;;;;;;;5109000;27;45981;-80
2021/08/03 12:57:05;;;;;;;;;6.00;6.00;;;;;;;;5100045;27;45198;-77
2021/08/03 12:59:40;;;;;;;;;5.33;5.00;;;;;;;;5098604;27;45221;-75
2021/08/03 13:02:07;;;;;;;;;7.67;7.00;;;;;;;;5099898;27;45553;-75
2021/08/03 13:04:32;;;;;;;;;10.67;10.67;;;;;;;;5099768;27;46019;-75
2021/08/03 13:07:00;;;;;;;;;8.00;8.00;;;;;;;;5099334;27;45284;-76
2021/08/03 13:09:26;;;;;;;;;8.00;7.67;;;;;;;;5119225;27;45251;-75
2021/08/03 13:11:51;;;;;;;;;6.00;6.00;;;;;;;;5108809;27;45466;-74
2021/08/03 13:14:16;;;;;;;;;7.00;5.00;;;;;;;;5110286;27;45451;-75
2021/08/03 13:16:41;;;;;;;;;6.33;6.00;;;;;;;;5113648;27;45249;-77
2021/08/03 13:19:06;;;;;;;;;4.67;4.67;;;;;;;;5120621;27;45255;-77
2021/08/03 13:21:32;;;;;;;;;7.00;7.00;;;;;;;;5123598;27;45355;-77
2021/08/03 13:23:57;;;;;;;;;4.00;4.00;;;;;;;;5123902;27;45461;-78
2021/08/03 13:26:22;;;;;;;;;4.33;3.33;;;;;;;;5124103;27;45343;-76
2021/08/03 13:28:48;;;;;;;;;110.75;102.00;;;;;;;;5124046;27;45251;-75
2021/08/03 13:31:13;;;;;;;;;4.67;4.33;;;;;;;;5122869;27;45434;-75
2021/08/03 13:33:39;;;;;;;;;5.00;4.00;;;;;;;;5102998;27;45983;-75
2021/08/03 13:36:04;;;;;;;;;3.00;2.67;;;;;;;;5103020;27;45152;-76
2021/08/03 13:38:29;;;;;;;;;5.33;5.33;;;;;;;;5102697;27;45290;-75
2021/08/03 13:40:54;;;;;;;;;4.00;3.67;;;;;;;;5102845;27;45194;-75
2021/08/03 13:43:19;;;;;;;;;6.33;4.67;;;;;;;;5119486;27;46312;-77
2021/08/03 13:45:45;;;;;;;;;3.00;3.00;;;;;;;;5123633;27;45223;-76
2021/08/03 13:48:10;;;;;;;;;6.67;5.67;;;;;;;;5123885;27;45327;-75
2021/08/03 13:50:35;;;;;;;;;6.67;5.00;;;;;;;;5121276;27;46227;-75
2021/08/03 13:53:00;;;;;;;;;5.00;4.33;;;;;;;;5123064;27;45894;-77
2021/08/03 13:55:26;;;;;;;;;6.33;4.33;;;;;;;;5122444;27;45704;-75
2021/08/03 13:57:51;;;;;;;;;4.67;4.00;;;;;;;;5123486;27;45451;-77
2021/08/03 14:00:16;;;;;;;;;4.33;4.33;;;;;;;;5122351;27;45609;-76
2021/08/03 14:02:41;;;;;;;;;17.67;14.67;;;;;;;;5122437;27;45384;-76
2021/08/03 14:05:07;;;;;;;;;5.33;5.33;;;;;;;;5123168;27;45361;-77
2021/08/03 14:07:33;;;;;;;;;4.33;4.33;;;;;;;;5122917;27;45375;-76
2021/08/03 14:09:58;;;;;;;;;4.33;4.33;;;;;;;;5123231;27;45312;-79
2021/08/03 14:12:23;;;;;;;;;6.00;6.00;;;;;;;;5123086;27;45348;-78
2021/08/03 14:14:48;;;;;;;;;6.00;5.00;;;;;;;;5123097;27;45305;-79
2021/08/03 14:17:15;;;;;;;;;5.00;5.00;;;;;;;;5123056;27;45267;-80
2021/08/03 14:19:40;;;;;;;;;3.00;3.00;;;;;;;;5105399;27;46212;-79
2021/08/03 14:22:05;;;;;;;;;3.00;3.00;;;;;;;;5121338;27;48086;-79
2021/08/03 14:24:31;;;;;;;;;3.33;3.33;;;;;;;;5123198;27;45305;-78
2021/08/03 14:26:56;;;;;;;;;5.00;5.00;;;;;;;;5121494;27;45573;-79
2021/08/03 14:29:21;;;;;;;;;4.67;4.00;;;;;;;;5121655;27;45456;-80
2021/08/03 14:31:46;;;;;;;;;5.00;5.00;;;;;;;;5143473;27;45296;-78
2021/08/03 14:34:11;;;;;;;;;7.33;6.00;;;;;;;;5143714;27;45297;-77